Time;durP1;ratioP1;P1;durP2;ratioP2;P2;SDS_P1;SDS_P2;PMS_P1;PMS_P2;Temp;Humidity;BMP_temperature;BMP_pressure;BME280_temperature;BME280_humidity;BME280_pressure;Samples;Min_cycle;Max_cycle;Signal;HPM_P1;HPM_P2
2021/09/04 00:01:33;;;;;;;;;;;;;;;;;;5115944;28;19955;-72
2021/09/04 00:04:00;;;;;;;;;;;;;;;;;;5115177;28;19924;-74
2021/09/04 00:06:26;;;;;;;;;;;;;;;;;;5115751;28;19928;-73
2021/09/04 00:08:52;;;;;;;;;;;;;;;;;;5115309;28;19931;-73
2021/09/04 00:11:19;;;;;;;;;;;;;;;;;;5115410;28;19923;-72
2021/09/04 00:13:45;;;;;;;;;;;;;;;;;;5115634;28;19924;-72
2021/09/04 00:16:12;;;;;;;;;;;;;;;;;;5114938;28;19924;-72
2021/09/04 00:18:38;;;;;;;;;;;;;;;;;;5115431;28;19924;-72
2021/09/04 00:21:04;;;;;;;;;;;;;;;;;;5115237;28;19930;-72
2021/09/04 00:23:31;;;;;;;;;;;;;;;;;;5114813;28;19924;-72
2021/09/04 00:25:57;;;;;;;;;;;;;;;;;;5114840;28;19934;-72
2021/09/04 00:28:23;;;;;;;;;;;;;;;;;;5115510;28;19947;-72
2021/09/04 00:30:49;;;;;;;;;;;;;;;;;;5114615;28;19931;-72
2021/09/04 00:33:16;;;;;;;;;;;;;;;;;;5115024;28;19931;-72
2021/09/04 00:35:42;;;;;;;;;;;;;;;;;;5115191;28;19923;-72
2021/09/04 00:38:08;;;;;;;;;;;;;;;;;;5114417;28;19924;-72
2021/09/04 00:40:35;;;;;;;;;;;;;;;;;;5114845;28;19930;-72
2021/09/04 00:43:01;;;;;;;;;;;;;;;;;;5114816;28;19931;-72
2021/09/04 00:45:27;;;;;;;;;;;;;;;;;;5114642;28;20413;-72
2021/09/04 00:47:54;;;;;;;;;;;;;;;;;;5115155;28;19924;-72
2021/09/04 00:50:20;;;;;;;;;;;;;;;;;;5114622;28;20282;-71
2021/09/04 00:52:46;;;;;;;;;;;;;;;;;;5114715;28;19931;-72
2021/09/04 00:55:12;;;;;;;;;;;;;;;;;;5114471;28;19924;-72
2021/09/04 00:57:39;;;;;;;;;;;;;;;;;;5114429;28;20309;-71
2021/09/04 01:00:05;;;;;;;;;;;;;;;;;;5114074;28;19923;-72
2021/09/04 01:02:31;;;;;;;;;;;;;;;;;;5114646;28;19924;-72
2021/09/04 01:04:58;;;;;;;;;;;;;;;;;;5113998;28;20305;-71
2021/09/04 01:07:24;;;;;;;;;;;;;;;;;;5114073;28;19930;-72
2021/09/04 01:09:50;;;;;;;;;;;;;;;;;;5114563;28;19931;-71
2021/09/04 01:12:16;;;;;;;;;;;;;;;;;;5114156;28;19928;-71
2021/09/04 01:14:43;;;;;;;;;;;;;;;;;;5114394;28;19925;-72
2021/09/04 01:17:09;;;;;;;;;;;;;;;;;;5114114;28;19924;-72
2021/09/04 01:19:35;;;;;;;;;;;;;;;;;;5113890;28;19931;-71
2021/09/04 01:22:02;;;;;;;;;;;;;;;;;;5113873;28;19924;-70
2021/09/04 01:24:28;;;;;;;;;;;;;;;;;;5113972;28;20298;-70
2021/09/04 01:26:54;;;;;;;;;;;;;;;;;;5113851;28;19931;-70
2021/09/04 01:29:20;;;;;;;;;;;;;;;;;;5113838;28;19924;-71
2021/09/04 01:31:47;;;;;;;;;;;;;;;;;;5113735;28;19931;-71
2021/09/04 01:34:13;;;;;;;;;;;;;;;;;;5113770;28;19924;-71
2021/09/04 01:36:39;;;;;;;;;;;;;;;;;;5113716;28;20398;-71
2021/09/04 01:39:06;;;;;;;;;;;;;;;;;;5113366;28;19928;-71
2021/09/04 01:41:32;;;;;;;;;;;;;;;;;;5113146;28;19924;-71
2021/09/04 01:43:58;;;;;;;;;;;;;;;;;;5113266;28;20404;-71
2021/09/04 01:46:25;;;;;;;;;;;;;;;;;;5113492;28;19931;-71
2021/09/04 01:48:51;;;;;;;;;;;;;;;;;;5113824;28;19931;-71
2021/09/04 01:51:17;;;;;;;;;;;;;;;;;;5113214;28;19932;-71
2021/09/04 01:53:43;;;;;;;;;;;;;;;;;;5113554;28;19924;-70
2021/09/04 01:56:10;;;;;;;;;;;;;;;;;;5113405;28;20285;-71
2021/09/04 01:58:36;;;;;;;;;;;;;;;;;;5113203;28;19923;-71
2021/09/04 02:01:02;;;;;;;;;;;;;;;;;;5113568;28;19923;-71
2021/09/04 02:03:29;;;;;;;;;;;;;;;;;;5113192;28;20271;-71
2021/09/04 02:05:55;;;;;;;;;;;;;;;;;;5113361;28;19931;-71
2021/09/04 02:08:21;;;;;;;;;;;;;;;;;;5113542;28;19924;-71
2021/09/04 02:10:48;;;;;;;;;;;;;;;;;;5113398;28;20370;-71
2021/09/04 02:13:14;;;;;;;;;;;;;;;;;;5112837;28;19924;-71
2021/09/04 02:15:40;;;;;;;;;;;;;;;;;;5113318;28;19924;-71
2021/09/04 02:18:06;;;;;;;;;;;;;;;;;;5112665;28;19924;-71
2021/09/04 02:20:33;;;;;;;;;;;;;;;;;;5113440;28;19924;-71
2021/09/04 02:22:59;;;;;;;;;;;;;;;;;;5112761;28;19977;-71
2021/09/04 02:25:25;;;;;;;;;;;;;;;;;;5112834;28;19932;-70
2021/09/04 02:27:52;;;;;;;;;;;;;;;;;;5113181;28;19930;-70
2021/09/04 02:30:18;;;;;;;;;;;;;;;;;;5112659;28;19931;-71
2021/09/04 02:32:44;;;;;;;;;;;;;;;;;;5112966;28;19930;-69
2021/09/04 02:35:10;;;;;;;;;;;;;;;;;;5112904;28;19934;-70
2021/09/04 02:37:37;;;;;;;;;;;;;;;;;;5112905;28;20374;-70
2021/09/04 02:40:03;;;;;;;;;;;;;;;;;;5112389;28;19928;-70
2021/09/04 02:42:29;;;;;;;;;;;;;;;;;;5113163;28;19927;-70
2021/09/04 02:44:56;;;;;;;;;;;;;;;;;;5112752;28;19924;-70
2021/09/04 02:47:22;;;;;;;;;;;;;;;;;;5112874;28;19924;-69
2021/09/04 02:49:48;;;;;;;;;;;;;;;;;;5113065;28;20007;-70
2021/09/04 02:52:15;;;;;;;;;;;;;;;;;;5113006;28;19924;-70
2021/09/04 02:54:41;;;;;;;;;;;;;;;;;;5117131;28;19924;-70
2021/09/04 02:57:08;;;;;;;;;;;;;;;;;;5116885;28;19924;-70
2021/09/04 02:59:34;;;;;;;;;;;;;;;;;;5116989;28;19924;-70
2021/09/04 03:02:00;;;;;;;;;;;;;;;;;;5116471;28;20381;-70
2021/09/04 03:04:27;;;;;;;;;;;;;;;;;;5116701;28;19930;-70
2021/09/04 03:06:53;;;;;;;;;;;;;;;;;;5116932;28;20021;-70
2021/09/04 03:09:19;;;;;;;;;;;;;;;;;;5116270;28;19927;-70
2021/09/04 03:11:46;;;;;;;;;;;;;;;;;;5116850;28;19931;-70
2021/09/04 03:14:12;;;;;;;;;;;;;;;;;;5116543;28;19946;-70
2021/09/04 03:16:38;;;;;;;;;;;;;;;;;;5116390;28;19923;-70
2021/09/04 03:19:04;;;;;;;;;;;;;;;;;;5116451;28;19931;-70
2021/09/04 03:21:31;;;;;;;;;;;;;;;;;;5116257;28;20366;-72
2021/09/04 03:23:57;;;;;;;;;;;;;;;;;;5115943;28;19924;-70
2021/09/04 03:26:23;;;;;;;;;;;;;;;;;;5116534;28;19924;-70
2021/09/04 03:28:50;;;;;;;;;;;;;;;;;;5116242;28;20405;-70
2021/09/04 03:31:16;;;;;;;;;;;;;;;;;;5115836;28;19924;-70
2021/09/04 03:33:44;;;;;;;;;;;;;;;;;;5115861;28;20360;-70
2021/09/04 03:36:10;;;;;;;;;;;;;;;;;;5115804;28;19927;-71
2021/09/04 03:38:37;;;;;;;;;;;;;;;;;;5116265;28;19924;-70
2021/09/04 03:41:03;;;;;;;;;;;;;;;;;;5115678;28;19931;-70
2021/09/04 03:43:29;;;;;;;;;;;;;;;;;;5116326;28;19934;-70
2021/09/04 03:45:56;;;;;;;;;;;;;;;;;;5115931;28;20423;-70
2021/09/04 03:48:22;;;;;;;;;;;;;;;;;;5115520;28;19924;-70
2021/09/04 03:50:48;;;;;;;;;;;;;;;;;;5116094;28;19924;-70
2021/09/04 03:53:14;;;;;;;;;;;;;;;;;;5115438;28;19923;-71
2021/09/04 03:55:41;;;;;;;;;;;;;;;;;;5115715;28;19931;-71
2021/09/04 03:58:07;;;;;;;;;;;;;;;;;;5115685;28;19923;-71
2021/09/04 04:00:33;;;;;;;;;;;;;;;;;;5115443;28;19924;-70
2021/09/04 04:03:00;;;;;;;;;;;;;;;;;;5115614;28;19935;-70
2021/09/04 04:05:26;;;;;;;;;;;;;;;;;;5114769;28;19924;-70
2021/09/04 04:07:52;;;;;;;;;;;;;;;;;;5115473;28;19930;-70
2021/09/04 04:10:18;;;;;;;;;;;;;;;;;;5115415;28;19928;-70
2021/09/04 04:12:45;;;;;;;;;;;;;;;;;;5115375;28;19924;-70
2021/09/04 04:15:11;;;;;;;;;;;;;;;;;;5115361;28;19928;-70
2021/09/04 04:17:37;;;;;;;;;;;;;;;;;;5115356;28;20396;-70
2021/09/04 04:20:04;;;;;;;;;;;;;;;;;;5114883;28;19930;-71
2021/09/04 04:22:30;;;;;;;;;;;;;;;;;;5115070;28;19935;-70
2021/09/04 04:24:56;;;;;;;;;;;;;;;;;;5115135;28;19924;-71
2021/09/04 04:27:23;;;;;;;;;;;;;;;;;;5114935;28;19923;-72
2021/09/04 04:29:49;;;;;;;;;;;;;;;;;;5115322;28;19924;-71
2021/09/04 04:32:15;;;;;;;;;;;;;;;;;;5114644;28;19997;-71
2021/09/04 04:34:41;;;;;;;;;;;;;;;;;;5115263;28;19930;-71
2021/09/04 04:37:08;;;;;;;;;;;;;;;;;;5114933;28;19950;-70
2021/09/04 04:39:34;;;;;;;;;;;;;;;;;;5114751;28;19931;-70
2021/09/04 04:42:00;;;;;;;;;;;;;;;;;;5114805;28;19928;-70
2021/09/04 04:44:27;;;;;;;;;;;;;;;;;;5114765;28;20293;-70
2021/09/04 04:46:53;;;;;;;;;;;;;;;;;;5114908;28;19924;-70
2021/09/04 04:49:19;;;;;;;;;;;;;;;;;;5114731;28;19923;-71
2021/09/04 04:51:45;;;;;;;;;;;;;;;;;;5114670;28;20271;-71
2021/09/04 04:54:12;;;;;;;;;;;;;;;;;;5114636;28;19931;-71
2021/09/04 04:56:38;;;;;;;;;;;;;;;;;;5114830;28;19946;-71
2021/09/04 04:59:04;;;;;;;;;;;;;;;;;;5113940;28;19931;-71
2021/09/04 05:01:31;;;;;;;;;;;;;;;;;;5114940;28;19934;-71
2021/09/04 05:03:57;;;;;;;;;;;;;;;;;;5114521;28;20382;-71
2021/09/04 05:06:23;;;;;;;;;;;;;;;;;;5114471;28;19924;-72
2021/09/04 05:08:50;;;;;;;;;;;;;;;;;;5114483;28;19946;-71
2021/09/04 05:11:16;;;;;;;;;;;;;;;;;;5113872;28;19924;-71
2021/09/04 05:13:42;;;;;;;;;;;;;;;;;;5114402;28;19924;-71
2021/09/04 05:16:10;;;;;;;;;;;;;;;;;;5112919;28;20374;-71
2021/09/04 05:18:36;;;;;;;;;;;;;;;;;;5114249;28;19924;-71
2021/09/04 05:21:03;;;;;;;;;;;;;;;;;;5113640;28;20369;-71
2021/09/04 05:23:30;;;;;;;;;;;;;;;;;;5113613;28;19924;-71
2021/09/04 05:25:56;;;;;;;;;;;;;;;;;;5114224;28;19974;-71
2021/09/04 05:28:22;;;;;;;;;;;;;;;;;;5113624;28;20400;-71
2021/09/04 05:30:49;;;;;;;;;;;;;;;;;;5113952;28;19923;-70
2021/09/04 05:33:15;;;;;;;;;;;;;;;;;;5113796;28;19924;-70
2021/09/04 05:35:42;;;;;;;;;;;;;;;;;;5113726;28;20381;-70
2021/09/04 05:38:08;;;;;;;;;;;;;;;;;;5113934;28;19936;-70
2021/09/04 05:40:35;;;;;;;;;;;;;;;;;;5113427;28;19931;-70
2021/09/04 05:43:01;;;;;;;;;;;;;;;;;;5113518;28;19927;-70
2021/09/04 05:45:27;;;;;;;;;;;;;;;;;;5113859;28;19924;-71
2021/09/04 05:47:53;;;;;;;;;;;;;;;;;;5113462;28;19930;-70
2021/09/04 05:50:20;;;;;;;;;;;;;;;;;;5113481;28;19924;-71
2021/09/04 05:52:46;;;;;;;;;;;;;;;;;;5113428;28;20400;-71
2021/09/04 05:55:12;;;;;;;;;;;;;;;;;;5113442;28;19924;-71
2021/09/04 05:57:39;;;;;;;;;;;;;;;;;;5113511;28;20294;-70
2021/09/04 06:00:05;;;;;;;;;;;;;;;;;;5112928;28;19931;-71
2021/09/04 06:02:31;;;;;;;;;;;;;;;;;;5113712;28;19928;-70
2021/09/04 06:04:57;;;;;;;;;;;;;;;;;;5113126;28;19931;-70
2021/09/04 06:07:24;;;;;;;;;;;;;;;;;;5113631;28;19924;-70
2021/09/04 06:09:50;;;;;;;;;;;;;;;;;;5112980;28;20378;-70
2021/09/04 06:12:16;;;;;;;;;;;;;;;;;;5113278;28;19924;-70
2021/09/04 06:14:43;;;;;;;;;;;;;;;;;;5113066;28;20293;-70
2021/09/04 06:17:09;;;;;;;;;;;;;;;;;;5113114;28;19924;-71
2021/09/04 06:19:35;;;;;;;;;;;;;;;;;;5112867;28;20392;-70
2021/09/04 06:22:02;;;;;;;;;;;;;;;;;;5112824;28;19935;-69
2021/09/04 06:24:28;;;;;;;;;;;;;;;;;;5113313;28;19953;-70
2021/09/04 06:26:54;;;;;;;;;;;;;;;;;;5112619;28;19930;-70
2021/09/04 06:29:20;;;;;;;;;;;;;;;;;;5112929;28;19924;-70
2021/09/04 06:31:47;;;;;;;;;;;;;;;;;;5113139;28;19946;-70
2021/09/04 06:34:13;;;;;;;;;;;;;;;;;;5112615;28;19923;-70
2021/09/04 06:36:39;;;;;;;;;;;;;;;;;;5113134;28;19924;-70
2021/09/04 06:39:06;;;;;;;;;;;;;;;;;;5112551;28;19931;-70
2021/09/04 06:41:32;;;;;;;;;;;;;;;;;;5112887;28;19927;-70
2021/09/04 06:43:58;;;;;;;;;;;;;;;;;;5112786;28;20382;-70
2021/09/04 06:46:24;;;;;;;;;;;;;;;;;;5112875;28;19924;-70
2021/09/04 06:48:51;;;;;;;;;;;;;;;;;;5112956;28;19924;-70
2021/09/04 06:51:17;;;;;;;;;;;;;;;;;;5112501;28;19930;-70
2021/09/04 06:53:43;;;;;;;;;;;;;;;;;;5112974;28;19924;-70
2021/09/04 06:56:10;;;;;;;;;;;;;;;;;;5112298;28;20297;-70
2021/09/04 06:58:36;;;;;;;;;;;;;;;;;;5112730;28;20395;-71
2021/09/04 07:01:02;;;;;;;;;;;;;;;;;;5112271;28;19928;-71
2021/09/04 07:03:29;;;;;;;;;;;;;;;;;;5112750;28;19923;-71
2021/09/04 07:05:55;;;;;;;;;;;;;;;;;;5112628;28;19931;-70
2021/09/04 07:08:21;;;;;;;;;;;;;;;;;;5112607;28;19924;-70
2021/09/04 07:10:47;;;;;;;;;;;;;;;;;;5112439;28;19938;-70
2021/09/04 07:13:14;;;;;;;;;;;;;;;;;;5112567;28;19956;-71
2021/09/04 07:15:40;;;;;;;;;;;;;;;;;;5112858;28;19946;-71
2021/09/04 07:18:06;;;;;;;;;;;;;;;;;;5112209;28;19973;-70
2021/09/04 07:20:33;;;;;;;;;;;;;;;;;;5112894;28;19928;-71
2021/09/04 07:22:59;;;;;;;;;;;;;;;;;;5112000;28;19938;-71
2021/09/04 07:25:25;;;;;;;;;;;;;;;;;;5112665;28;19923;-71
2021/09/04 07:27:51;;;;;;;;;;;;;;;;;;5112477;28;20390;-71
2021/09/04 07:30:18;;;;;;;;;;;;;;;;;;5112432;28;19931;-71
2021/09/04 07:32:44;;;;;;;;;;;;;;;;;;5112680;28;19930;-71
2021/09/04 07:35:10;;;;;;;;;;;;;;;;;;5111914;28;19931;-71
2021/09/04 07:37:37;;;;;;;;;;;;;;;;;;5112308;28;19924;-71
2021/09/04 07:40:03;;;;;;;;;;;;;;;;;;5114071;28;19935;-71
2021/09/04 07:42:29;;;;;;;;;;;;;;;;;;5116198;28;19928;-71
2021/09/04 07:44:56;;;;;;;;;;;;;;;;;;5115983;28;19924;-71
2021/09/04 07:47:22;;;;;;;;;;;;;;;;;;5115858;28;19931;-70
2021/09/04 07:49:48;;;;;;;;;;;;;;;;;;5116002;28;20392;-71
2021/09/04 07:52:14;;;;;;;;;;;;;;;;;;5115518;28;19930;-71
2021/09/04 07:54:41;;;;;;;;;;;;;;;;;;5116051;28;19930;-71
2021/09/04 07:57:07;;;;;;;;;;;;;;;;;;5115409;28;20388;-71
2021/09/04 07:59:33;;;;;;;;;;;;;;;;;;5115571;28;19934;-71
2021/09/04 08:02:00;;;;;;;;;;;;;;;;;;5115438;28;19923;-71
2021/09/04 08:04:26;;;;;;;;;;;;;;;;;;5115277;28;19924;-71
2021/09/04 08:06:52;;;;;;;;;;;;;;;;;;5115316;28;19969;-71
2021/09/04 08:09:19;;;;;;;;;;;;;;;;;;5115218;28;19928;-71
2021/09/04 08:11:45;;;;;;;;;;;;;;;;;;5115647;28;20271;-71
2021/09/04 08:14:11;;;;;;;;;;;;;;;;;;5115402;28;19927;-71
2021/09/04 08:16:38;;;;;;;;;;;;;;;;;;5115615;28;19924;-69
2021/09/04 08:19:04;;;;;;;;;;;;;;;;;;5115030;28;19935;-70
2021/09/04 08:21:30;;;;;;;;;;;;;;;;;;5115614;28;19923;-70
2021/09/04 08:23:56;;;;;;;;;;;;;;;;;;5115354;28;20289;-70
2021/09/04 08:26:23;;;;;;;;;;;;;;;;;;5114915;28;19932;-70
2021/09/04 08:28:50;;;;;;;;;;;;;;;;;;5115495;28;19924;-70
2021/09/04 08:31:16;;;;;;;;;;;;;;;;;;5114551;28;19931;-70
2021/09/04 08:33:42;;;;;;;;;;;;;;;;;;5114892;28;20019;-70
2021/09/04 08:36:09;;;;;;;;;;;;;;;;;;5115000;28;19930;-70
2021/09/04 08:38:35;;;;;;;;;;;;;;;;;;5114950;28;20290;-70
2021/09/04 08:41:01;;;;;;;;;;;;;;;;;;5114622;28;19923;-70
2021/09/04 08:43:28;;;;;;;;;;;;;;;;;;5115078;28;19955;-70
2021/09/04 08:45:54;;;;;;;;;;;;;;;;;;5114715;28;20534;-70
2021/09/04 08:48:20;;;;;;;;;;;;;;;;;;5114721;28;19924;-70
2021/09/04 08:50:46;;;;;;;;;;;;;;;;;;5114700;28;19930;-71
2021/09/04 08:53:13;;;;;;;;;;;;;;;;;;5114191;28;20496;-73
2021/09/04 08:55:40;;;;;;;;;;;;;;;;;;5114860;28;19931;-72
2021/09/04 08:58:06;;;;;;;;;;;;;;;;;;5114513;28;19969;-74
2021/09/04 09:00:32;;;;;;;;;;;;;;;;;;5114304;28;19923;-72
2021/09/04 09:02:59;;;;;;;;;;;;;;;;;;5108278;28;19932;-72
2021/09/04 09:05:25;;;;;;;;;;;;;;;;;;5099869;28;19924;-72
2021/09/04 09:07:51;;;;;;;;;;;;;;;;;;5111046;28;19931;-72
2021/09/04 09:10:18;;;;;;;;;;;;;;;;;;5112365;28;20237;-73
2021/09/04 09:12:44;;;;;;;;;;;;;;;;;;5093654;28;19939;-73
2021/09/04 09:15:10;;;;;;;;;;;;;;;;;;5093604;28;19924;-72
2021/09/04 09:17:36;;;;;;;;;;;;;;;;;;5093839;28;20400;-72
2021/09/04 09:20:03;;;;;;;;;;;;;;;;;;5105051;28;19931;-72
2021/09/04 09:22:29;;;;;;;;;;;;;;;;;;5113969;28;19923;-72
2021/09/04 09:24:56;;;;;;;;;;;;;;;;;;5114281;28;19927;-72
2021/09/04 09:27:22;;;;;;;;;;;;;;;;;;5113744;28;20406;-72
2021/09/04 09:29:51;;;;;;;;;;;;;;;;;;5113810;28;19924;-72
2021/09/04 09:32:17;;;;;;;;;;;;;;;;;;5113571;28;20018;-72
2021/09/04 09:34:43;;;;;;;;;;;;;;;;;;5114261;28;19923;-72
2021/09/04 09:37:10;;;;;;;;;;;;;;;;;;5101264;28;20275;-72
2021/09/04 09:39:36;;;;;;;;;;;;;;;;;;5093288;28;19930;-72
2021/09/04 09:42:02;;;;;;;;;;;;;;;;;;5093159;28;19924;-73
2021/09/04 09:44:29;;;;;;;;;;;;;;;;;;5093389;28;19924;-72
2021/09/04 09:46:55;;;;;;;;;;;;;;;;;;5093149;28;19928;-72
2021/09/04 09:49:21;;;;;;;;;;;;;;;;;;5093300;28;19924;-73
2021/09/04 09:51:47;;;;;;;;;;;;;;;;;;5093122;28;19931;-74
2021/09/04 09:54:14;;;;;;;;;;;;;;;;;;5093130;28;20073;-72
2021/09/04 09:56:41;;;;;;;;;;;;;;;;;;5093052;28;19924;-73
2021/09/04 09:59:07;;;;;;;;;;;;;;;;;;5093099;28;19924;-73
2021/09/04 10:01:33;;;;;;;;;;;;;;;;;;5092546;28;20382;-70
2021/09/04 10:03:59;;;;;;;;;;;;;;;;;;5092205;28;19924;-73
2021/09/04 10:06:26;;;;;;;;;;;;;;;;;;5093073;28;19931;-72
2021/09/04 10:08:52;;;;;;;;;;;;;;;;;;5092822;28;20379;-71
2021/09/04 10:11:19;;;;;;;;;;;;;;;;;;5105082;28;19935;-74
2021/09/04 10:13:45;;;;;;;;;;;;;;;;;;5113020;28;20338;-70
2021/09/04 10:16:11;;;;;;;;;;;;;;;;;;5112649;28;19934;-73
2021/09/04 10:18:37;;;;;;;;;;;;;;;;;;5113304;28;19930;-73
2021/09/04 10:21:04;;;;;;;;;;;;;;;;;;5112609;28;19923;-73
2021/09/04 10:23:30;;;;;;;;;;;;;;;;;;5112942;28;19931;-75
2021/09/04 10:25:56;;;;;;;;;;;;;;;;;;5113358;28;20285;-74
2021/09/04 10:28:23;;;;;;;;;;;;;;;;;;5113975;28;19930;-72
2021/09/04 10:30:49;;;;;;;;;;;;;;;;;;5113600;28;19924;-66
2021/09/04 10:33:16;;;;;;;;;;;;;;;;;;5112990;28;19934;-69
2021/09/04 10:35:43;;;;;;;;;;;;;;;;;;5113265;28;19923;-69
2021/09/04 10:38:09;;;;;;;;;;;;;;;;;;5112897;28;19924;-69
2021/09/04 10:40:35;;;;;;;;;;;;;;;;;;5112681;28;20275;-69
2021/09/04 10:43:02;;;;;;;;;;;;;;;;;;5112510;28;19924;-68
2021/09/04 10:45:28;;;;;;;;;;;;;;;;;;5113008;28;19924;-69
2021/09/04 10:47:54;;;;;;;;;;;;;;;;;;5112770;28;19931;-69
2021/09/04 10:50:21;;;;;;;;;;;;;;;;;;5112791;28;19923;-70
2021/09/04 10:52:47;;;;;;;;;;;;;;;;;;5113038;28;19924;-70
2021/09/04 10:55:13;;;;;;;;;;;;;;;;;;5112451;28;19924;-69
2021/09/04 10:57:39;;;;;;;;;;;;;;;;;;5112965;28;19930;-69
2021/09/04 11:00:06;;;;;;;;;;;;;;;;;;5112268;28;20408;-70
2021/09/04 11:02:32;;;;;;;;;;;;;;;;;;5112726;28;19924;-69
2021/09/04 11:04:58;;;;;;;;;;;;;;;;;;5112809;28;19931;-71
2021/09/04 11:07:25;;;;;;;;;;;;;;;;;;5112555;28;20370;-69
2021/09/04 11:09:51;;;;;;;;;;;;;;;;;;5112318;28;19928;-69
2021/09/04 11:12:17;;;;;;;;;;;;;;;;;;5092205;28;19924;-70
2021/09/04 11:14:44;;;;;;;;;;;;;;;;;;5095243;28;20267;-69
2021/09/04 11:17:10;;;;;;;;;;;;;;;;;;5095810;28;19924;-69
2021/09/04 11:19:36;;;;;;;;;;;;;;;;;;5096307;28;19944;-70
2021/09/04 11:22:03;;;;;;;;;;;;;;;;;;5095184;28;20374;-69
2021/09/04 11:24:29;;;;;;;;;;;;;;;;;;5096067;28;20278;-69
2021/09/04 11:26:55;;;;;;;;;;;;;;;;;;5095734;28;19939;-69
2021/09/04 11:29:21;;;;;;;;;;;;;;;;;;5095799;28;19931;-69
2021/09/04 11:31:48;;;;;;;;;;;;;;;;;;5096299;28;19924;-69
2021/09/04 11:34:14;;;;;;;;;;;;;;;;;;5095378;28;20006;-69
2021/09/04 11:36:40;;;;;;;;;;;;;;;;;;5096031;28;19924;-69
2021/09/04 11:39:07;;;;;;;;;;;;;;;;;;5095754;28;19951;-70
2021/09/04 11:41:33;;;;;;;;;;;;;;;;;;5095414;28;19931;-70
2021/09/04 11:43:59;;;;;;;;;;;;;;;;;;5095465;28;19924;-70
2021/09/04 11:46:26;;;;;;;;;;;;;;;;;;5095544;28;20378;-69
2021/09/04 11:48:53;;;;;;;;;;;;;;;;;;5095712;28;19969;-70
2021/09/04 11:51:19;;;;;;;;;;;;;;;;;;5095316;28;20289;-70
2021/09/04 11:53:45;;;;;;;;;;;;;;;;;;5095509;28;19932;-70
2021/09/04 11:56:12;;;;;;;;;;;;;;;;;;5095456;28;19928;-70
2021/09/04 11:58:38;;;;;;;;;;;;;;;;;;5095393;28;19939;-69
2021/09/04 12:01:04;;;;;;;;;;;;;;;;;;5095431;28;19939;-69
2021/09/04 12:03:30;;;;;;;;;;;;;;;;;;5095001;28;20378;-69
2021/09/04 12:05:57;;;;;;;;;;;;;;;;;;5095143;28;19928;-69
2021/09/04 12:08:23;;;;;;;;;;;;;;;;;;5095420;28;19924;-69
2021/09/04 12:10:49;;;;;;;;;;;;;;;;;;5103135;28;19923;-69
2021/09/04 12:13:16;;;;;;;;;;;;;;;;;;5115020;28;19969;-70
2021/09/04 12:15:42;;;;;;;;;;;;;;;;;;5115498;28;19931;-69
2021/09/04 12:18:08;;;;;;;;;;;;;;;;;;5115049;28;20329;-69
2021/09/04 12:20:35;;;;;;;;;;;;;;;;;;5115320;28;19931;-69
2021/09/04 12:23:01;;;;;;;;;;;;;;;;;;5114817;28;19924;-70
2021/09/04 12:25:27;;;;;;;;;;;;;;;;;;5114480;28;19928;-69
2021/09/04 12:27:53;;;;;;;;;;;;;;;;;;5115415;28;19931;-69
2021/09/04 12:30:20;;;;;;;;;;;;;;;;;;5114746;28;19923;-69
2021/09/04 12:32:46;;;;;;;;;;;;;;;;;;5115307;28;19931;-69
2021/09/04 12:35:12;;;;;;;;;;;;;;;;;;5114864;28;20401;-69
2021/09/04 12:37:39;;;;;;;;;;;;;;;;;;5114767;28;19924;-69
2021/09/04 12:40:05;;;;;;;;;;;;;;;;;;5114699;28;19946;-69
2021/09/04 12:42:31;;;;;;;;;;;;;;;;;;5114464;28;20297;-70
2021/09/04 12:44:57;;;;;;;;;;;;;;;;;;5114636;28;19928;-71
2021/09/04 12:47:24;;;;;;;;;;;;;;;;;;5114259;28;19924;-68
2021/09/04 12:49:50;;;;;;;;;;;;;;;;;;5112787;28;20393;-70
2021/09/04 12:52:17;;;;;;;;;;;;;;;;;;5112468;28;19924;-70
2021/09/04 12:54:43;;;;;;;;;;;;;;;;;;5112687;28;19924;-70
2021/09/04 12:57:09;;;;;;;;;;;;;;;;;;5112803;28;19963;-70
2021/09/04 12:59:36;;;;;;;;;;;;;;;;;;5112656;28;20270;-70
2021/09/04 13:02:02;;;;;;;;;;;;;;;;;;5112075;28;19930;-71
2021/09/04 13:04:28;;;;;;;;;;;;;;;;;;5114587;28;19930;-70
2021/09/04 13:06:54;;;;;;;;;;;;;;;;;;5114338;28;20290;-71
2021/09/04 13:09:21;;;;;;;;;;;;;;;;;;5113906;28;19924;-70
2021/09/04 13:11:47;;;;;;;;;;;;;;;;;;5114504;28;19927;-70
2021/09/04 13:14:13;;;;;;;;;;;;;;;;;;5113809;28;19923;-70
2021/09/04 13:16:40;;;;;;;;;;;;;;;;;;5114152;28;19924;-70
2021/09/04 13:19:06;;;;;;;;;;;;;;;;;;5113855;28;19924;-70
2021/09/04 13:21:32;;;;;;;;;;;;;;;;;;5113862;28;19931;-70
2021/09/04 13:23:59;;;;;;;;;;;;;;;;;;5113720;28;19931;-71
2021/09/04 13:26:25;;;;;;;;;;;;;;;;;;5114274;28;19930;-70
2021/09/04 13:28:51;;;;;;;;;;;;;;;;;;5114231;28;20277;-70
2021/09/04 13:31:17;;;;;;;;;;;;;;;;;;5113494;28;19937;-70
2021/09/04 13:33:44;;;;;;;;;;;;;;;;;;5114007;28;19924;-70
2021/09/04 13:36:10;;;;;;;;;;;;;;;;;;5113338;28;20526;-70
2021/09/04 13:38:38;;;;;;;;;;;;;;;;;;5112974;28;19930;-70
2021/09/04 13:41:04;;;;;;;;;;;;;;;;;;5113668;28;19924;-70
2021/09/04 13:43:30;;;;;;;;;;;;;;;;;;5113611;28;19930;-70
2021/09/04 13:45:56;;;;;;;;;;;;;;;;;;5113864;28;19924;-70
2021/09/04 13:48:23;;;;;;;;;;;;;;;;;;5113223;28;20294;-70
2021/09/04 13:50:49;;;;;;;;;;;;;;;;;;5113506;28;19924;-70
2021/09/04 13:53:15;;;;;;;;;;;;;;;;;;5113544;28;19924;-69
2021/09/04 13:55:42;;;;;;;;;;;;;;;;;;5113803;28;20022;-70
2021/09/04 13:58:08;;;;;;;;;;;;;;;;;;5113031;28;19927;-70
2021/09/04 14:00:34;;;;;;;;;;;;;;;;;;5113329;28;19924;-70
2021/09/04 14:03:00;;;;;;;;;;;;;;;;;;5113207;28;19924;-70
2021/09/04 14:05:27;;;;;;;;;;;;;;;;;;5113254;28;19924;-70
2021/09/04 14:07:53;;;;;;;;;;;;;;;;;;5113178;28;19949;-70
2021/09/04 14:10:19;;;;;;;;;;;;;;;;;;5113085;28;19927;-70
2021/09/04 14:12:46;;;;;;;;;;;;;;;;;;5112890;28;20281;-70
2021/09/04 14:15:12;;;;;;;;;;;;;;;;;;5112786;28;19939;-70
2021/09/04 14:17:38;;;;;;;;;;;;;;;;;;5113309;28;19947;-70
2021/09/04 14:20:05;;;;;;;;;;;;;;;;;;5112546;28;19938;-70
2021/09/04 14:22:31;;;;;;;;;;;;;;;;;;5113145;28;19923;-71
2021/09/04 14:24:57;;;;;;;;;;;;;;;;;;5113258;28;20389;-70
2021/09/04 14:27:27;;;;;;;;;;;;;;;;;;5113120;28;20450;-70
2021/09/04 14:29:54;;;;;;;;;;;;;;;;;;5113122;28;19924;-70
2021/09/04 14:32:20;;;;;;;;;;;;;;;;;;5113094;28;19924;-70
2021/09/04 14:34:47;;;;;;;;;;;;;;;;;;5113124;28;20341;-70
2021/09/04 14:37:13;;;;;;;;;;;;;;;;;;5112565;28;19923;-70
2021/09/04 14:39:39;;;;;;;;;;;;;;;;;;5113189;28;19931;-70
2021/09/04 14:42:05;;;;;;;;;;;;;;;;;;5112766;28;19931;-70
2021/09/04 14:44:32;;;;;;;;;;;;;;;;;;5113040;28;19938;-70
2021/09/04 14:46:58;;;;;;;;;;;;;;;;;;5113174;28;20388;-71
2021/09/04 14:49:24;;;;;;;;;;;;;;;;;;5115827;28;20014;-70
2021/09/04 14:51:51;;;;;;;;;;;;;;;;;;5116815;28;19923;-70
2021/09/04 14:54:17;;;;;;;;;;;;;;;;;;5117011;28;19930;-70
2021/09/04 14:56:44;;;;;;;;;;;;;;;;;;5116956;28;20381;-70
2021/09/04 14:59:10;;;;;;;;;;;;;;;;;;5116867;28;19924;-71
2021/09/04 15:01:37;;;;;;;;;;;;;;;;;;5116985;28;19931;-70
2021/09/04 15:04:03;;;;;;;;;;;;;;;;;;5116951;28;19924;-70
2021/09/04 15:06:29;;;;;;;;;;;;;;;;;;5116866;28;19931;-70
2021/09/04 15:08:56;;;;;;;;;;;;;;;;;;5116616;28;20018;-70
2021/09/04 15:11:22;;;;;;;;;;;;;;;;;;5116606;28;19924;-70
2021/09/04 15:13:49;;;;;;;;;;;;;;;;;;5116505;28;19927;-70
2021/09/04 15:16:16;;;;;;;;;;;;;;;;;;5116555;28;20372;-70
2021/09/04 15:18:42;;;;;;;;;;;;;;;;;;5116991;28;19931;-70
2021/09/04 15:21:08;;;;;;;;;;;;;;;;;;5116701;28;19928;-70
2021/09/04 15:23:39;;;;;;;;;;;;;;;;;;5116317;28;19923;-70
2021/09/04 15:26:05;;;;;;;;;;;;;;;;;;5116238;28;19970;-70
2021/09/04 15:28:32;;;;;;;;;;;;;;;;;;5116606;28;19931;-70
2021/09/04 15:30:58;;;;;;;;;;;;;;;;;;5116287;28;19930;-70
2021/09/04 15:33:24;;;;;;;;;;;;;;;;;;5116405;28;19924;-71
2021/09/04 15:35:51;;;;;;;;;;;;;;;;;;5116061;28;20499;-70
2021/09/04 15:38:17;;;;;;;;;;;;;;;;;;5115812;28;19931;-70
2021/09/04 15:40:43;;;;;;;;;;;;;;;;;;5116337;28;19923;-71
2021/09/04 15:43:09;;;;;;;;;;;;;;;;;;5115635;28;19928;-70
2021/09/04 15:45:36;;;;;;;;;;;;;;;;;;5116317;28;19923;-70
2021/09/04 15:48:02;;;;;;;;;;;;;;;;;;5115592;28;19923;-71
2021/09/04 15:50:28;;;;;;;;;;;;;;;;;;5115863;28;19930;-69
2021/09/04 15:52:55;;;;;;;;;;;;;;;;;;5116094;28;20028;-69
2021/09/04 15:55:21;;;;;;;;;;;;;;;;;;5115338;28;20293;-69
2021/09/04 15:57:47;;;;;;;;;;;;;;;;;;5115820;28;19930;-69
2021/09/04 16:00:14;;;;;;;;;;;;;;;;;;5114584;28;19930;-69
2021/09/04 16:02:40;;;;;;;;;;;;;;;;;;5115523;28;19941;-69
2021/09/04 16:05:06;;;;;;;;;;;;;;;;;;5115231;28;19924;-69
2021/09/04 16:07:32;;;;;;;;;;;;;;;;;;5115589;28;20298;-69
2021/09/04 16:09:59;;;;;;;;;;;;;;;;;;5115262;28;20005;-69
2021/09/04 16:12:25;;;;;;;;;;;;;;;;;;5115767;28;19924;-70
2021/09/04 16:14:51;;;;;;;;;;;;;;;;;;5115479;28;19924;-70
2021/09/04 16:17:18;;;;;;;;;;;;;;;;;;5115542;28;19923;-70
2021/09/04 16:19:44;;;;;;;;;;;;;;;;;;5115576;28;19930;-70
2021/09/04 16:22:10;;;;;;;;;;;;;;;;;;5114773;28;19935;-70
2021/09/04 16:24:36;;;;;;;;;;;;;;;;;;5115521;28;19924;-70
2021/09/04 16:27:03;;;;;;;;;;;;;;;;;;5115093;28;19931;-70
2021/09/04 16:29:29;;;;;;;;;;;;;;;;;;5115202;28;19937;-70
2021/09/04 16:31:55;;;;;;;;;;;;;;;;;;5115483;28;19930;-70
2021/09/04 16:34:22;;;;;;;;;;;;;;;;;;5114775;28;20297;-69
2021/09/04 16:36:48;;;;;;;;;;;;;;;;;;5114743;28;19924;-70
2021/09/04 16:39:14;;;;;;;;;;;;;;;;;;5114964;28;19931;-69